Time;durP1;ratioP1;P1;durP2;ratioP2;P2;SDS_P1;SDS_P2;PMS_P1;PMS_P2;Temp;Humidity;BMP_temperature;BMP_pressure;BME280_temperature;BME280_humidity;BME280_pressure;Samples;Min_cycle;Max_cycle;Signal;HPM_P1;HPM_P2
2022/01/30 00:02:55;;;;;;;13.73;4.27;;;9.40;99.90;;;;;;5005183;28;20474;-82
2022/01/30 00:06:26;;;;;;;13.00;5.17;;;9.60;99.90;;;;;;5041123;28;20449;-84
2022/01/30 00:12:44;;;;;;;13.30;4.10;;;9.30;99.90;;;;;;5045242;28;20445;-82
2022/01/30 00:15:47;;;;;;;13.53;4.27;;;9.30;99.90;;;;;;5039937;28;20463;-83
2022/01/30 00:21:58;;;;;;;21.83;5.83;;;9.30;99.90;;;;;;5065244;28;20465;-82
2022/01/30 00:28:05;;;;;;;11.10;4.03;;;9.20;99.90;;;;;;5053603;28;20521;-85
2022/01/30 00:30:47;;;;;;;11.80;4.30;;;9.20;99.90;;;;;;5050217;28;20460;-85
2022/01/30 00:33:24;;;;;;;12.80;4.20;;;9.20;99.90;;;;;;5054328;28;20444;-90
2022/01/30 00:35:52;;;;;;;15.27;5.57;;;9.20;99.90;;;;;;5044599;28;20939;-82
2022/01/30 00:38:35;;;;;;;8.70;3.37;;;9.20;99.90;;;;;;5033295;28;20484;-85
2022/01/30 00:41:15;;;;;;;16.50;4.27;;;9.10;99.90;;;;;;5032639;28;20457;-83
2022/01/30 00:43:53;;;;;;;14.70;4.00;;;9.00;99.90;;;;;;5031533;28;20458;-82
2022/01/30 00:46:24;;;;;;;13.40;4.60;;;9.00;99.90;;;;;;5037288;28;20453;-81
2022/01/30 00:49:10;;;;;;;11.83;3.67;;;9.00;99.90;;;;;;5053677;28;20488;-80
2022/01/30 00:51:45;;;;;;;15.90;3.10;;;9.00;99.90;;;;;;5046243;28;20460;-84
2022/01/30 00:54:19;;;;;;;12.00;4.10;;;9.00;99.90;;;;;;5031973;28;20491;-80
2022/01/30 00:57:21;;;;;;;11.00;3.43;;;9.10;99.90;;;;;;5035882;28;20489;-85
2022/01/30 00:59:52;;;;;;;11.83;4.00;;;9.00;99.90;;;;;;5030446;28;20454;-83
2022/01/30 01:02:24;;;;;;;12.10;4.40;;;8.80;99.90;;;;;;5035316;28;20552;-84
2022/01/30 01:05:07;;;;;;;14.97;4.33;;;8.80;99.90;;;;;;4993660;28;20443;-83
2022/01/30 01:08:02;;;;;;;12.90;4.60;;;8.80;99.90;;;;;;4995960;28;21047;-84
2022/01/30 01:26:40;;;;;;;11.57;4.47;;;8.80;99.90;;;;;;4950004;29;20533;-84
2022/01/30 01:29:10;;;;;;;17.77;4.90;;;8.60;99.90;;;;;;4948508;29;20478;-84
2022/01/30 01:31:41;;;;;;;12.03;3.80;;;8.60;99.90;;;;;;4948601;29;20459;-86
2022/01/30 01:34:39;;;;;;;9.07;3.67;;;8.60;99.90;;;;;;4982057;28;20463;-82
2022/01/30 01:37:21;;;;;;;8.27;3.70;;;8.60;99.90;;;;;;4987716;28;20519;-83
2022/01/30 01:40:05;;;;;;;10.97;3.43;;;8.50;99.90;;;;;;5006281;28;20447;-83
2022/01/30 01:42:55;;;;;;;13.90;5.10;;;8.50;99.90;;;;;;5036987;28;20525;-83
2022/01/30 01:45:39;;;;;;;17.17;3.13;;;8.50;99.90;;;;;;5036427;28;20449;-82
2022/01/30 01:48:19;;;;;;;11.77;4.03;;;8.70;99.90;;;;;;5022438;28;20490;-85
2022/01/30 01:51:06;;;;;;;20.40;3.90;;;8.50;99.90;;;;;;5017065;28;20453;-83
2022/01/30 01:53:40;;;;;;;16.10;3.70;;;8.50;99.90;;;;;;5013703;28;20482;-83
2022/01/30 01:56:16;;;;;;;12.53;2.97;;;8.70;99.90;;;;;;5019422;28;20486;-83
2022/01/30 01:58:54;;;;;;;10.47;3.90;;;8.50;99.90;;;;;;5013510;28;21404;-86
2022/01/30 02:01:45;;;;;;;16.47;4.33;;;8.40;99.90;;;;;;5034651;28;20485;-83
2022/01/30 02:04:20;;;;;;;13.03;3.93;;;8.30;99.90;;;;;;5015129;28;20474;-83
2022/01/30 02:10:34;;;;;;;14.93;4.43;;;8.30;99.90;;;;;;5030959;28;20494;-83
2022/01/30 02:13:32;;;;;;;10.33;3.40;;;8.20;99.90;;;;;;5015098;28;20471;-81
2022/01/30 02:28:07;;;;;;;14.73;4.13;;;8.20;99.90;;;;;;5034422;28;20505;-82
2022/01/30 02:31:26;;;;;;;12.20;3.67;;;8.20;99.90;;;;;;5012699;28;20511;-86
2022/01/30 02:33:52;;;;;;;14.80;3.83;;;8.20;99.90;;;;;;5023909;28;20949;-81
2022/01/30 02:36:46;;;;;;;8.80;3.17;;;8.20;99.90;;;;;;5009899;28;20459;-83
2022/01/30 02:39:29;;;;;;;16.33;4.00;;;8.10;99.90;;;;;;5032004;28;20488;-82
2022/01/30 02:42:25;;;;;;;9.73;3.20;;;8.10;99.90;;;;;;5001674;28;20466;-83
2022/01/30 02:44:59;;;;;;;19.70;4.03;;;8.00;99.90;;;;;;5016314;28;20455;-83
2022/01/30 02:50:55;;;;;;;17.73;4.20;;;8.00;99.90;;;;;;5033370;28;20455;-83
2022/01/30 02:53:31;;;;;;;16.80;3.60;;;8.00;99.90;;;;;;5022535;28;20463;-83
2022/01/30 02:56:14;;;;;;;24.50;5.03;;;8.00;99.90;;;;;;5023251;28;20457;-85
2022/01/30 02:58:52;;;;;;;14.50;3.90;;;8.00;99.90;;;;;;5008991;28;20513;-86
2022/01/30 03:01:32;;;;;;;10.07;3.50;;;8.00;99.90;;;;;;5018645;28;20462;-84
2022/01/30 03:04:08;;;;;;;14.80;4.23;;;8.00;99.90;;;;;;5016455;28;20467;-84
2022/01/30 03:06:54;;;;;;;15.20;4.60;;;8.00;99.90;;;;;;5018126;28;20464;-83
2022/01/30 03:09:47;;;;;;;12.77;3.77;;;8.00;99.90;;;;;;5013005;28;20476;-84
2022/01/30 03:12:20;;;;;;;10.77;3.77;;;8.00;99.90;;;;;;5016690;28;20483;-83
2022/01/30 03:15:10;;;;;;;12.37;3.40;;;8.00;99.90;;;;;;5016443;28;20485;-83
2022/01/30 03:17:42;;;;;;;15.87;4.00;;;7.90;99.90;;;;;;5008808;28;20477;-85
2022/01/30 03:20:16;;;;;;;13.40;3.43;;;7.90;99.90;;;;;;5007634;28;20457;-84
2022/01/30 03:22:54;;;;;;;11.87;3.53;;;7.90;99.90;;;;;;5001410;28;20454;-87
2022/01/30 03:25:34;;;;;;;13.87;4.17;;;7.80;99.90;;;;;;4994615;28;20456;-86
2022/01/30 03:28:15;;;;;;;14.40;3.97;;;7.80;99.90;;;;;;5005273;28;20565;-86
2022/01/30 03:30:52;;;;;;;12.50;4.00;;;7.80;99.90;;;;;;5005988;28;20461;-84
2022/01/30 03:33:22;;;;;;;18.63;3.83;;;7.70;99.90;;;;;;5007401;28;20496;-84
2022/01/30 03:35:58;;;;;;;11.53;4.60;;;7.80;99.90;;;;;;5010187;28;20468;-83
2022/01/30 03:38:34;;;;;;;18.87;3.90;;;7.70;99.90;;;;;;5012813;28;20489;-84
2022/01/30 03:41:23;;;;;;;12.97;4.33;;;7.80;99.90;;;;;;5012281;28;21017;-83
2022/01/30 03:43:58;;;;;;;8.73;3.00;;;8.00;99.90;;;;;;5011050;28;20499;-83
2022/01/30 03:46:31;;;;;;;14.43;3.70;;;7.70;99.90;;;;;;5015022;28;20462;-86
2022/01/30 03:49:34;;;;;;;16.60;5.40;;;7.70;99.90;;;;;;5038099;28;20479;-83
2022/01/30 03:52:04;;;;;;;12.93;4.30;;;7.80;99.90;;;;;;5042368;28;20469;-82
2022/01/30 03:54:46;;;;;;;11.33;3.60;;;7.80;99.90;;;;;;5043440;28;20503;-86
2022/01/30 03:57:34;;;;;;;11.80;4.23;;;7.80;99.90;;;;;;5048553;28;20981;-79
2022/01/30 04:00:08;;;;;;;14.07;3.17;;;7.80;99.90;;;;;;5040731;28;20456;-84
2022/01/30 04:02:42;;;;;;;7.63;3.50;;;7.80;99.90;;;;;;5031593;28;20464;-84
2022/01/30 04:06:15;;;;;;;13.13;5.10;;;7.80;99.90;;;;;;5049335;28;20570;-83
2022/01/30 04:08:52;;;;;;;9.43;3.37;;;7.70;99.90;;;;;;5036186;28;20492;-85
2022/01/30 04:11:50;;;;;;;9.97;3.80;;;7.80;99.90;;;;;;5051895;28;20453;-83
2022/01/30 04:14:36;;;;;;;13.30;3.37;;;7.70;99.90;;;;;;5037631;28;20582;-88
2022/01/30 04:20:08;;;;;;;12.80;3.07;;;7.80;99.90;;;;;;5037981;28;20461;-81
2022/01/30 04:23:00;;;;;;;14.37;3.07;;;7.80;99.90;;;;;;5040567;28;20472;-84
2022/01/30 04:25:37;;;;;;;20.73;5.00;;;7.80;99.90;;;;;;5043839;28;20487;-86
2022/01/30 04:28:29;;;;;;;10.07;3.30;;;7.70;99.90;;;;;;5034232;28;20535;-87
2022/01/30 04:30:59;;;;;;;13.00;3.67;;;7.70;99.90;;;;;;5048420;28;20463;-87
2022/01/30 04:33:49;;;;;;;14.83;3.60;;;7.70;99.90;;;;;;5065786;28;20487;-86
2022/01/30 04:52:52;;;;;;;15.07;3.70;;;7.60;99.90;;;;;;5055217;28;21083;-85
2022/01/30 04:58:36;;;;;;;11.13;3.97;;;7.70;99.90;;;;;;5060146;28;20579;-84
2022/01/30 05:01:51;;;;;;;20.40;5.20;;;7.60;99.90;;;;;;5037390;28;20467;-85
2022/01/30 05:09:27;;;;;;;11.57;3.10;;;7.50;99.90;;;;;;5061620;28;20472;-83
2022/01/30 05:11:56;;;;;;;19.63;3.20;;;7.50;99.90;;;;;;5060718;28;20544;-83
2022/01/30 05:14:26;;;;;;;13.93;3.80;;;7.60;99.90;;;;;;5040219;28;20456;-85
2022/01/30 05:16:53;;;;;;;11.47;3.60;;;7.50;99.90;;;;;;5053130;28;20480;-84
2022/01/30 05:19:20;;;;;;;13.03;3.67;;;7.60;99.90;;;;;;5035766;28;20540;-84
2022/01/30 05:21:48;;;;;;;9.33;2.73;;;7.60;99.90;;;;;;5033859;28;22833;-83
2022/01/30 05:24:16;;;;;;;11.87;3.90;;;7.60;99.90;;;;;;5033041;28;20473;-82
2022/01/30 05:26:45;;;;;;;12.80;5.27;;;7.60;99.90;;;;;;5033107;28;20550;-83
2022/01/30 05:29:14;;;;;;;9.87;3.90;;;7.60;99.90;;;;;;5035459;28;20869;-80
2022/01/30 05:31:42;;;;;;;10.33;2.97;;;7.50;99.90;;;;;;5033669;28;20445;-84
2022/01/30 05:34:10;;;;;;;15.70;3.80;;;7.50;99.90;;;;;;5052244;28;20453;-82
2022/01/30 05:36:38;;;;;;;14.47;3.67;;;7.50;99.90;;;;;;5052125;28;20514;-81
2022/01/30 05:39:06;;;;;;;16.37;5.13;;;7.40;99.90;;;;;;5053298;28;20460;-84
2022/01/30 05:41:34;;;;;;;10.97;3.17;;;7.50;99.90;;;;;;5051972;28;20511;-85
2022/01/30 05:44:10;;;;;;;10.83;3.00;;;7.40;99.90;;;;;;5051487;28;20445;-84
2022/01/30 05:46:44;;;;;;;11.67;2.97;;;7.40;99.90;;;;;;5032488;28;21016;-83
2022/01/30 05:49:14;;;;;;;15.47;3.40;;;7.40;99.90;;;;;;5033163;28;20477;-81
2022/01/30 05:51:42;;;;;;;7.00;2.70;;;7.40;99.90;;;;;;5033858;28;20465;-82
2022/01/30 05:54:11;;;;;;;15.73;4.00;;;7.50;99.90;;;;;;5032120;28;20587;-85
2022/01/30 05:56:38;;;;;;;16.60;4.17;;;7.50;99.90;;;;;;5033928;28;20878;-86
2022/01/30 05:59:06;;;;;;;15.47;3.60;;;7.50;99.90;;;;;;5031088;28;20857;-84
2022/01/30 06:01:43;;;;;;;12.27;2.87;;;7.50;99.90;;;;;;5037349;28;20478;-85
2022/01/30 06:04:21;;;;;;;16.37;3.53;;;7.50;99.90;;;;;;5051583;28;20505;-86
2022/01/30 06:07:00;;;;;;;8.50;3.00;;;7.50;99.90;;;;;;5036832;28;20495;-80
2022/01/30 06:09:38;;;;;;;15.20;4.40;;;7.50;99.90;;;;;;5038631;28;20508;-84
2022/01/30 06:12:20;;;;;;;11.47;4.00;;;7.50;99.90;;;;;;5046079;28;20468;-82
2022/01/30 06:15:09;;;;;;;15.83;3.47;;;7.50;99.90;;;;;;5036397;28;20476;-86
2022/01/30 06:17:47;;;;;;;13.43;3.13;;;7.50;99.90;;;;;;5036013;28;20965;-85
2022/01/30 06:20:37;;;;;;;13.07;3.43;;;7.50;99.90;;;;;;5039839;28;20445;-85
2022/01/30 06:23:15;;;;;;;7.60;2.60;;;7.50;99.90;;;;;;5036555;28;20452;-85
2022/01/30 06:25:59;;;;;;;11.70;3.40;;;7.50;99.90;;;;;;5035866;28;20456;-83
2022/01/30 06:28:35;;;;;;;13.90;4.10;;;7.60;99.90;;;;;;5036518;28;20550;-83
2022/01/30 06:31:35;;;;;;;19.47;3.87;;;7.50;99.90;;;;;;5032268;28;20881;-82
2022/01/30 06:34:34;;;;;;;11.00;2.63;;;7.50;99.90;;;;;;5036879;28;20476;-82
2022/01/30 06:37:09;;;;;;;11.50;3.20;;;7.40;99.90;;;;;;5036150;28;20496;-83
2022/01/30 06:40:13;;;;;;;11.87;3.93;;;7.40;99.90;;;;;;5052542;28;21288;-83
2022/01/30 06:42:49;;;;;;;11.00;3.23;;;7.40;99.90;;;;;;5037828;28;20484;-83
2022/01/30 06:45:36;;;;;;;13.67;3.07;;;7.50;99.90;;;;;;5032193;28;20465;-85
2022/01/30 06:48:22;;;;;;;21.83;3.27;;;7.30;99.90;;;;;;5050072;28;20493;-82
2022/01/30 06:51:15;;;;;;;11.70;3.00;;;7.30;99.90;;;;;;4978742;28;20492;-84
2022/01/30 06:53:47;;;;;;;10.07;3.50;;;7.30;99.90;;;;;;4974259;28;20498;-83
2022/01/30 06:56:24;;;;;;;12.80;3.40;;;7.40;99.90;;;;;;4992516;28;20460;-85
2022/01/30 06:59:34;;;;;;;14.33;4.70;;;7.40;99.90;;;;;;4976916;28;21675;-87
2022/01/30 07:02:12;;;;;;;10.60;2.90;;;7.40;99.90;;;;;;4993182;28;21162;-83
2022/01/30 07:04:45;;;;;;;11.90;2.90;;;7.40;99.90;;;;;;4978646;28;20539;-83
2022/01/30 07:07:35;;;;;;;10.90;2.90;;;7.40;99.90;;;;;;4980507;28;20487;-84
2022/01/30 07:10:20;;;;;;;10.03;3.10;;;7.40;99.90;;;;;;4977640;28;20472;-84
2022/01/30 07:12:55;;;;;;;10.03;3.40;;;7.40;99.90;;;;;;4987234;28;20454;-86
2022/01/30 07:15:55;;;;;;;13.03;3.87;;;7.40;99.90;;;;;;4990117;28;20444;-87
2022/01/30 07:18:37;;;;;;;9.57;3.00;;;7.40;99.90;;;;;;4990409;28;20471;-86
2022/01/30 07:21:15;;;;;;;8.90;2.80;;;7.40;99.90;;;;;;5015765;28;20528;-85
2022/01/30 07:23:48;;;;;;;10.20;3.20;;;7.40;99.90;;;;;;5069437;28;20456;-88
2022/01/30 07:26:23;;;;;;;8.17;3.00;;;7.40;99.90;;;;;;5047429;28;20458;-86
2022/01/30 07:29:05;;;;;;;13.60;3.33;;;7.30;99.90;;;;;;5045670;28;20453;-86
2022/01/30 07:31:49;;;;;;;16.37;2.90;;;7.40;99.90;;;;;;5033105;28;20466;-84
2022/01/30 07:34:21;;;;;;;9.80;3.13;;;7.40;99.90;;;;;;5050540;28;20463;-85
2022/01/30 07:36:58;;;;;;;14.60;3.07;;;7.40;99.90;;;;;;5030042;28;20486;-81
2022/01/30 07:39:49;;;;;;;9.30;3.03;;;7.50;99.90;;;;;;5016753;28;21078;-83
2022/01/30 07:42:21;;;;;;;9.67;3.27;;;7.50;99.90;;;;;;5033088;28;20461;-83
2022/01/30 07:45:04;;;;;;;;;;;;;;;;;;;;;
2022/01/30 07:48:32;;;;;;;;;;;;;;;;;;;;;
2022/01/30 07:51:34;;;;;;;10.53;3.13;;;7.50;99.90;;;;;;4986831;28;20482;-84
2022/01/30 07:54:38;;;;;;;11.07;3.27;;;7.40;99.90;;;;;;5061909;28;20793;-82
2022/01/30 07:57:31;;;;;;;7.33;2.70;;;7.40;99.90;;;;;;4963284;28;20484;-84
2022/01/30 08:00:20;;;;;;;9.60;3.17;;;7.40;99.90;;;;;;4959780;28;20503;-83
2022/01/30 08:03:01;;;;;;;12.70;3.30;;;7.50;99.90;;;;;;4959953;28;20499;-84
2022/01/30 08:06:06;;;;;;;10.90;2.80;;;7.40;99.90;;;;;;4958390;28;20482;-83
2022/01/30 08:09:21;;;;;;;10.93;2.50;;;7.40;99.90;;;;;;4960273;28;20481;-81
2022/01/30 08:11:54;;;;;;;11.63;2.73;;;7.40;99.90;;;;;;4927234;28;20487;-83
2022/01/30 08:14:44;;;;;;;11.47;3.97;;;7.50;99.90;;;;;;4968337;28;20444;-82
2022/01/30 08:17:32;;;;;;;18.07;4.37;;;7.70;99.90;;;;;;5040430;28;20484;-85
2022/01/30 08:20:30;;;;;;;;;;;;;;;;;;;;;
2022/01/30 08:23:23;;;;;;;9.90;2.50;;;7.50;99.90;;;;;;5068217;28;20472;-80
2022/01/30 08:26:50;;;;;;;13.80;3.40;;;7.50;99.90;;;;;;5047821;28;20947;-83
2022/01/30 08:29:55;;;;;;;9.57;3.30;;;7.60;99.90;;;;;;5045814;28;20461;-83
2022/01/30 08:32:53;;;;;;;7.90;2.27;;;7.60;99.90;;;;;;5029967;28;20464;-87
2022/01/30 08:35:50;;;;;;;11.30;2.63;;;7.60;99.90;;;;;;5039093;28;20431;-84
2022/01/30 08:39:00;;;;;;;12.90;3.20;;;7.70;99.90;;;;;;5058287;28;20477;-85
2022/01/30 08:41:33;;;;;;;15.07;3.30;;;7.70;99.90;;;;;;5041695;28;20460;-82
2022/01/30 08:44:20;;;;;;;11.63;2.70;;;7.70;99.90;;;;;;5036252;28;20508;-83
2022/01/30 08:47:05;;;;;;;11.60;3.20;;;7.80;99.90;;;;;;5021506;28;20469;-81
2022/01/30 08:50:25;;;;;;;9.97;2.37;;;7.70;99.90;;;;;;5047194;28;20562;-88
2022/01/30 08:53:47;;;;;;;11.47;2.80;;;7.70;99.90;;;;;;5020913;28;20453;-84
2022/01/30 08:56:53;;;;;;;14.20;2.70;;;7.70;99.90;;;;;;5020814;28;20536;-86
2022/01/30 08:59:57;;;;;;;11.50;3.10;;;7.70;99.90;;;;;;5032423;28;20552;-83
2022/01/30 09:02:44;;;;;;;14.13;3.50;;;7.80;99.90;;;;;;5017448;28;20906;-83
2022/01/30 09:05:48;;;;;;;14.47;3.13;;;7.90;99.90;;;;;;5025489;28;20453;-81
2022/01/30 09:08:32;;;;;;;7.77;2.53;;;8.00;99.70;;;;;;5022124;28;20504;-84
2022/01/30 09:11:10;;;;;;;14.70;6.10;;;8.00;99.60;;;;;;5024398;28;20478;-83
2022/01/30 09:14:02;;;;;;;8.17;2.63;;;8.10;99.70;;;;;;5038347;28;20446;-83
2022/01/30 09:17:26;;;;;;;9.53;3.07;;;8.00;99.60;;;;;;5017765;28;20490;-84
2022/01/30 09:20:10;;;;;;;13.50;3.77;;;8.10;99.40;;;;;;5031643;28;20517;-83
2022/01/30 09:23:26;;;;;;;9.47;2.33;;;8.10;99.20;;;;;;5025670;28;20512;-81
2022/01/30 09:26:10;;;;;;;10.67;3.23;;;8.20;99.30;;;;;;5014211;28;20516;-81
2022/01/30 09:29:07;;;;;;;15.13;3.47;;;8.20;99.20;;;;;;5031447;28;21656;-85
2022/01/30 09:32:06;;;;;;;11.63;2.93;;;8.20;99.30;;;;;;5036075;28;20552;-85
2022/01/30 09:38:07;;;;;;;16.67;3.40;;;8.20;98.80;;;;;;5027222;28;20497;-88
2022/01/30 09:41:10;;;;;;;18.37;5.03;;;8.10;99.10;;;;;;5025112;28;20503;-85
2022/01/30 09:44:27;;;;;;;5.93;2.77;;;8.20;99.20;;;;;;5018513;28;20490;-81
2022/01/30 09:47:22;;;;;;;9.50;3.17;;;8.10;99.10;;;;;;5020416;28;20490;-83
2022/01/30 09:50:19;;;;;;;11.23;3.50;;;8.10;99.40;;;;;;5036791;28;20488;-82
2022/01/30 09:53:24;;;;;;;;;;;;;;;;;;;;;
2022/01/30 09:56:20;;;;;;;13.27;2.97;;;8.30;99.00;;;;;;5059559;28;20474;-83
2022/01/30 09:59:11;;;;;;;8.83;2.50;;;8.20;98.80;;;;;;5056902;23;20548;-85
2022/01/30 10:02:32;;;;;;;12.60;5.00;;;8.60;98.40;;;;;;4996531;28;20815;-85
2022/01/30 10:05:43;;;;;;;9.90;3.20;;;9.80;96.80;;;;;;4934773;29;20458;-81
2022/01/30 10:08:41;;;;;;;8.77;2.87;;;10.60;93.60;;;;;;5010123;23;20584;-84
2022/01/30 10:12:26;;;;;;;10.23;3.90;;;10.40;92.50;;;;;;5040052;28;20469;-82
2022/01/30 10:18:55;;;;;;;8.53;2.90;;;9.00;95.20;;;;;;5001293;28;20470;-85
2022/01/30 10:22:16;;;;;;;13.20;3.67;;;9.60;95.50;;;;;;4993696;28;20447;-82
2022/01/30 10:25:29;;;;;;;19.50;3.90;;;10.30;93.00;;;;;;4987181;28;20444;-86
2022/01/30 10:28:42;;;;;;;8.70;3.50;;;9.80;93.10;;;;;;5001599;28;20505;-85
2022/01/30 10:32:33;;;;;;;9.07;3.13;;;9.30;94.00;;;;;;4988569;28;20501;-85
2022/01/30 10:35:37;;;;;;;12.60;2.80;;;9.30;94.70;;;;;;4999086;28;21140;-87
2022/01/30 10:39:30;;;;;;;10.73;3.03;;;9.50;94.50;;;;;;4998202;28;20472;-85
2022/01/30 10:42:56;;;;;;;13.37;3.03;;;9.60;94.00;;;;;;5019956;28;20994;-85
2022/01/30 10:45:55;;;;;;;;;;;;;;;;;;;;;
2022/01/30 10:49:18;;;;;;;13.70;3.33;;;9.50;93.90;;;;;;5017927;28;20496;-85
2022/01/30 10:52:07;;;;;;;8.83;2.87;;;9.20;94.30;;;;;;5000629;28;20512;-85
2022/01/30 10:54:53;;;;;;;14.17;3.70;;;9.10;94.20;;;;;;5015967;28;20488;-84
2022/01/30 10:57:53;;;;;;;13.00;3.60;;;9.00;94.40;;;;;;4999640;28;20494;-85
2022/01/30 11:07:30;;;;;;;18.90;4.10;;;9.20;94.40;;;;;;5016173;28;20565;-85
2022/01/30 11:10:25;;;;;;;14.33;3.93;;;9.30;94.60;;;;;;4983600;28;20499;-90
2022/01/30 11:13:31;;;;;;;16.03;4.63;;;9.30;94.40;;;;;;5010159;28;20513;-87
2022/01/30 11:20:01;;;;;;;12.17;3.17;;;9.10;94.70;;;;;;4918192;29;20463;-84
2022/01/30 11:23:28;;;;;;;19.67;4.70;;;9.20;94.50;;;;;;4898990;29;20536;-84
2022/01/30 11:26:46;;;;;;;11.23;3.90;;;9.30;94.40;;;;;;4902156;29;20488;-83
2022/01/30 11:29:24;;;;;;;14.37;4.83;;;9.30;93.90;;;;;;5006439;28;20461;-84
2022/01/30 11:32:40;;;;;;;13.37;3.73;;;9.40;93.80;;;;;;5010540;28;20512;-83
2022/01/30 11:40:02;;;;;;;15.50;3.80;;;9.40;93.60;;;;;;5024756;28;20427;-84
2022/01/30 11:42:44;;;;;;;12.57;3.90;;;9.40;93.40;;;;;;5023007;28;20449;-83
2022/01/30 11:45:19;;;;;;;19.07;4.17;;;9.50;92.30;;;;;;4999078;28;20478;-83
2022/01/30 11:48:27;;;;;;;12.93;4.03;;;9.50;91.60;;;;;;5021898;28;21136;-85
2022/01/30 11:51:07;;;;;;;13.57;4.00;;;9.40;89.30;;;;;;5017606;28;20560;-87
2022/01/30 11:53:54;;;;;;;9.67;3.90;;;9.60;89.30;;;;;;5003555;28;20532;-84
2022/01/30 11:56:41;;;;;;;12.50;3.40;;;10.00;88.00;;;;;;5005147;28;20458;-86
2022/01/30 11:59:54;;;;;;;13.77;4.07;;;9.90;88.30;;;;;;5022312;28;20467;-86
2022/01/30 12:03:27;;;;;;;10.07;3.60;;;10.00;87.00;;;;;;5004306;28;20490;-85
2022/01/30 12:09:29;;;;;;;14.60;4.30;;;9.80;86.30;;;;;;4975975;28;20563;-86
2022/01/30 12:12:17;;;;;;;19.57;4.73;;;9.60;86.20;;;;;;4975856;28;20484;-84
2022/01/30 12:15:10;;;;;;;15.33;4.00;;;9.60;86.40;;;;;;4970138;28;20462;-87
2022/01/30 12:18:22;;;;;;;8.43;3.30;;;9.50;86.30;;;;;;4971669;28;20507;-85
2022/01/30 12:25:17;;;;;;;15.60;4.23;;;9.50;87.50;;;;;;4997581;28;20467;-84
2022/01/30 12:28:08;;;;;;;13.17;3.97;;;9.30;86.80;;;;;;4969825;28;20496;-83
2022/01/30 12:30:58;;;;;;;16.30;3.43;;;9.40;87.00;;;;;;4983529;28;20892;-83
2022/01/30 12:37:29;;;;;;;17.17;3.67;;;9.40;86.40;;;;;;5000552;28;20538;-83
2022/01/30 12:40:33;;;;;;;15.03;5.33;;;9.20;86.40;;;;;;4997951;28;20459;-86
2022/01/30 12:43:29;;;;;;;17.50;4.60;;;9.30;86.80;;;;;;4978040;28;20459;-83
2022/01/30 12:46:25;;;;;;;14.00;4.50;;;9.50;86.40;;;;;;4978651;28;20471;-84
2022/01/30 12:49:11;;;;;;;14.87;4.20;;;9.50;86.10;;;;;;5025755;23;20507;-87
2022/01/30 12:52:05;;;;;;;11.87;3.57;;;9.50;86.00;;;;;;5015960;28;20487;-83
2022/01/30 12:55:09;;;;;;;15.07;3.87;;;9.40;85.80;;;;;;5008461;28;20956;-82
2022/01/30 12:57:55;;;;;;;19.53;4.20;;;9.50;86.60;;;;;;5014743;28;20480;-86
2022/01/30 13:00:34;;;;;;;14.10;4.53;;;9.50;86.30;;;;;;5014461;28;20568;-85
2022/01/30 13:03:18;;;;;;;14.63;3.40;;;9.50;86.10;;;;;;5013927;28;20467;-82
2022/01/30 13:06:02;;;;;;;12.53;3.80;;;9.50;85.90;;;;;;5017372;28;20549;-85
2022/01/30 13:09:11;;;;;;;11.80;4.77;;;9.50;86.20;;;;;;5017446;28;20496;-86
2022/01/30 13:11:41;;;;;;;18.37;5.00;;;9.70;86.10;;;;;;5030347;28;20493;-87
2022/01/30 13:14:18;;;;;;;13.10;3.50;;;9.60;85.60;;;;;;5018819;28;20590;-84
2022/01/30 13:17:12;;;;;;;19.43;4.40;;;9.60;85.80;;;;;;4989387;28;20545;-83
2022/01/30 13:22:45;;;;;;;14.10;4.37;;;9.80;86.10;;;;;;5031520;28;20508;-83
2022/01/30 13:25:22;;;;;;;23.63;5.03;;;9.80;86.40;;;;;;5015472;28;20518;-83
2022/01/30 13:28:03;;;;;;;18.13;4.37;;;9.90;86.40;;;;;;5016964;28;20489;-80
2022/01/30 13:31:15;;;;;;;16.77;3.93;;;10.10;84.20;;;;;;5013973;28;20510;-85
2022/01/30 13:34:29;;;;;;;15.97;4.30;;;9.90;84.40;;;;;;5011689;28;20565;-85
2022/01/30 13:37:38;;;;;;;12.47;3.67;;;9.80;84.30;;;;;;5002250;28;20496;-84
2022/01/30 13:40:56;;;;;;;32.87;15.67;;;9.60;83.70;;;;;;5015965;28;20484;-81
2022/01/30 13:44:21;;;;;;;14.00;4.47;;;9.60;83.80;;;;;;5014718;28;20498;-83
2022/01/30 13:53:49;;;;;;;14.73;5.20;;;9.70;84.90;;;;;;5021484;28;20462;-87
2022/01/30 13:56:41;;;;;;;14.27;4.13;;;9.80;84.50;;;;;;5019276;28;20931;-86
2022/01/30 13:59:37;;;;;;;9.07;3.33;;;10.00;82.60;;;;;;5019582;28;20963;-83
2022/01/30 14:03:08;;;;;;;13.43;4.10;;;9.90;82.90;;;;;;5021029;28;20457;-86
2022/01/30 14:06:02;;;;;;;17.00;3.60;;;10.10;81.10;;;;;;5031311;28;20528;-83
2022/01/30 14:10:06;;;;;;;;;;;;;;;;;;;;;
2022/01/30 14:13:29;;;;;;;15.20;3.60;;;10.10;81.00;;;;;;4898139;29;20568;-84
2022/01/30 14:16:23;;;;;;;23.77;4.57;;;10.10;82.20;;;;;;4958491;28;20466;-83
2022/01/30 14:19:20;;;;;;;23.43;4.20;;;10.40;81.60;;;;;;4958191;28;20457;-86
2022/01/30 14:22:33;;;;;;;16.97;4.40;;;10.00;81.30;;;;;;4947562;28;20500;-86
2022/01/30 14:25:42;;;;;;;14.10;4.50;;;9.80;84.00;;;;;;4951641;28;20510;-85
2022/01/30 14:29:01;;;;;;;14.63;3.70;;;9.60;84.90;;;;;;4957275;28;20493;-83
2022/01/30 14:31:34;;;;;;;10.80;4.47;;;9.50;83.60;;;;;;4945037;28;20495;-82
2022/01/30 14:34:30;;;;;;;13.00;4.00;;;9.40;84.00;;;;;;4944482;28;20524;-84
2022/01/30 14:37:25;;;;;;;10.60;4.10;;;9.50;84.30;;;;;;4946242;28;20525;-85
2022/01/30 14:40:25;;;;;;;8.80;4.30;;;9.50;84.20;;;;;;4956993;28;20485;-86
2022/01/30 14:46:26;;;;;;;15.83;5.03;;;9.70;84.20;;;;;;4957808;28;20464;-85
2022/01/30 14:49:11;;;;;;;8.57;2.90;;;9.70;83.30;;;;;;4990421;28;20470;-86
2022/01/30 14:52:15;;;;;;;9.37;3.33;;;9.60;83.10;;;;;;5012963;28;20480;-82
2022/01/30 14:55:24;;;;;;;12.77;4.73;;;9.60;83.00;;;;;;5013198;28;20454;-85
2022/01/30 14:58:48;;;;;;;11.57;3.77;;;9.50;83.00;;;;;;5019773;28;20460;-83
2022/01/30 15:04:29;;;;;;;12.70;3.10;;;9.50;83.50;;;;;;5031182;28;20588;-88
2022/01/30 15:07:24;;;;;;;15.03;4.63;;;9.40;83.80;;;;;;5025982;28;20552;-85
2022/01/30 15:10:14;;;;;;;14.67;3.77;;;9.70;83.80;;;;;;5032200;28;20468;-83
2022/01/30 15:16:47;;;;;;;14.13;4.83;;;9.70;83.60;;;;;;5026489;28;20466;-83
2022/01/30 15:20:21;;;;;;;10.50;3.87;;;9.60;83.20;;;;;;5018185;28;20448;-84
2022/01/30 15:23:00;;;;;;;13.73;3.90;;;9.40;82.70;;;;;;5015078;28;20466;-86
2022/01/30 15:26:05;;;;;;;13.53;3.43;;;9.30;83.40;;;;;;5017217;28;20433;-86
2022/01/30 15:35:33;;;;;;;12.73;3.90;;;9.20;85.20;;;;;;5047231;28;20464;-84
2022/01/30 15:41:27;;;;;;;15.00;4.27;;;9.20;85.60;;;;;;5045204;28;20918;-82
2022/01/30 15:51:44;;;;;;;16.10;4.13;;;9.10;86.90;;;;;;5047694;28;20459;-85
2022/01/30 15:54:57;;;;;;;13.60;3.90;;;9.00;87.20;;;;;;5028278;28;20457;-85
2022/01/30 15:58:21;;;;;;;17.20;6.80;;;9.00;87.40;;;;;;4896295;29;21039;-83
2022/01/30 16:01:47;;;;;;;23.30;5.50;;;9.00;88.30;;;;;;4893482;29;20460;-81
2022/01/30 16:08:12;;;;;;;9.47;3.20;;;8.90;88.60;;;;;;4906746;29;20501;-84
2022/01/30 16:17:33;;;;;;;12.50;3.67;;;8.80;90.00;;;;;;4919002;29;20499;-85
2022/01/30 16:20:37;;;;;;;10.30;4.83;;;8.80;90.20;;;;;;4921952;29;20493;-80
2022/01/30 16:23:56;;;;;;;13.23;5.33;;;8.80;90.00;;;;;;4982256;28;20459;-84
2022/01/30 16:30:43;;;;;;;15.07;4.10;;;8.70;90.30;;;;;;5015937;28;20535;-86
2022/01/30 16:37:02;;;;;;;13.67;4.90;;;8.60;90.30;;;;;;4961539;28;20488;-87
2022/01/30 16:39:52;;;;;;;13.30;4.40;;;8.60;90.60;;;;;;4897524;29;20475;-82
2022/01/30 16:43:22;;;;;;;14.43;3.23;;;8.80;90.60;;;;;;4823114;29;20487;-82
2022/01/30 16:46:21;;;;;;;13.83;5.67;;;8.60;90.60;;;;;;4826015;29;20847;-83
2022/01/30 16:52:25;;;;;;;9.37;4.07;;;8.50;90.70;;;;;;4827824;29;20508;-85
2022/01/30 16:55:49;;;;;;;15.80;5.03;;;8.50;90.80;;;;;;4830662;29;20457;-83
2022/01/30 16:58:38;;;;;;;17.37;4.80;;;8.50;90.80;;;;;;4828868;29;20537;-87
2022/01/30 17:01:20;;;;;;;15.20;4.60;;;8.50;91.00;;;;;;4831133;29;20610;-86
2022/01/30 17:07:59;;;;;;;15.97;5.10;;;8.50;91.10;;;;;;4817529;29;20492;-86
2022/01/30 17:11:11;;;;;;;10.03;5.17;;;8.50;91.10;;;;;;4832485;29;20555;-85
2022/01/30 17:14:21;;;;;;;15.47;4.27;;;8.50;91.20;;;;;;4920322;28;21095;-87
2022/01/30 17:17:06;;;;;;;13.27;5.70;;;8.50;91.40;;;;;;5012493;28;21562;-82
2022/01/30 17:20:27;;;;;;;18.70;7.77;;;8.40;91.30;;;;;;5035617;28;20587;-83
2022/01/30 17:23:30;;;;;;;11.47;5.47;;;8.40;91.40;;;;;;5046809;28;20460;-85
2022/01/30 17:26:34;;;;;;;12.40;4.90;;;8.40;91.50;;;;;;5055169;28;20539;-87
2022/01/30 17:29:20;;;;;;;11.13;4.00;;;8.30;91.50;;;;;;5056528;28;20465;-86
2022/01/30 17:32:07;;;;;;;13.50;4.70;;;8.30;91.70;;;;;;5052469;28;20486;-85
2022/01/30 17:35:01;;;;;;;11.50;4.93;;;8.30;91.70;;;;;;5057529;28;20461;-84
2022/01/30 17:41:43;;;;;;;18.20;7.07;;;8.20;91.80;;;;;;5060877;28;20471;-88
2022/01/30 17:44:25;;;;;;;14.07;6.60;;;8.20;92.10;;;;;;5038180;28;20491;-83
2022/01/30 17:54:19;;;;;;;16.27;8.60;;;8.20;92.30;;;;;;5052714;28;20457;-82
2022/01/30 17:57:43;;;;;;;;;;;;;;;;;;;;;
2022/01/30 18:01:24;;;;;;;13.83;5.60;;;8.20;92.60;;;;;;5047631;28;20508;-87